PWSweather.com
Personal Weather Stations
Station Observations
WD02334
France, RosnySousBoisFR 93110

FranceRosnySousBoisFR 93110

Lat: 48.875661, Lon: 2.485932

Elevation: 88

Station Type: WMR100/OREGON SCIENTIFIC

http://boulletpascal.fr/index

Latest ConditionsUpdated 11:10:11 AM GMT+01:01 Thursday, Jan 29, 2015
Currently Today's Max Today's Min Today's Average
Temperature 42.4°F5.8°C 42.4°F5.8°C 40.5°F4.7°C 41.4°F5.2°C
Dew Point 34.4°F1.3°C 34.4°F1.3°C 29.3°F-1.5°C 31.7°F-0.2°C
Winds 2.3 mph SSW3.7 kmh SSW 5.8 mph NNE9.3 kmh NNE - 5.7 mph 9.2 kmh
Wind Gusts 2.3 mph3.7 kmh 5.8 mph9.3 kmh - -
Humidity 73% 74% 62% 68%
Pressure 29.38 in994.9 mb 29.74 in1007.1 mb 29.38 in994.9 mb -
Hour Temp Dew Point Humidity Winds Wind Gusts Pressure Precip Precip Rate Daily Precip Total
11:10 AM 42.4°F5.8°C 34.4°F1.3°C 73% 2.3 mph SSW3.7 kmh SSW 2.3 mph3.7 kmh 29.38 in994.9 mb 0.00 in0.0 mm 0.00 in/hr0.0 mm/hr 0.00 in0.0 mm
09:40 AM 41.7°F5.4°C 34.0°F1.1°C 74% 5.8 mph NNE9.3 kmh NNE 5.8 mph9.3 kmh 29.44 in997.0 mb 0.00 in0.0 mm 0.00 in/hr0.0 mm/hr 0.00 in0.0 mm
09:30 AM 41.5°F5.3°C 33.9°F1.1°C 74% 5.8 mph NNE9.3 kmh NNE 5.8 mph9.3 kmh 29.44 in997.0 mb 0.00 in0.0 mm 0.00 in/hr0.0 mm/hr 0.00 in0.0 mm
09:20 AM 41.4°F5.2°C 33.7°F0.9°C 74% 5.8 mph NNE9.3 kmh NNE 5.8 mph9.3 kmh 29.46 in997.6 mb 0.00 in0.0 mm 0.00 in/hr0.0 mm/hr 0.00 in0.0 mm
09:10 AM 41.3°F5.2°C 33.6°F0.9°C 74% 5.8 mph NNE9.3 kmh NNE 5.8 mph9.3 kmh 29.47 in998.0 mb 0.00 in0.0 mm 0.00 in/hr0.0 mm/hr 0.00 in0.0 mm
08:50 AM 41.1°F5.1°C 33.5°F0.8°C 74% 5.8 mph NNE9.3 kmh NNE 5.8 mph9.3 kmh 29.47 in998.0 mb 0.00 in0.0 mm 0.00 in/hr0.0 mm/hr 0.00 in0.0 mm
08:40 AM 41.0°F5.0°C 33.3°F0.7°C 74% 5.8 mph NNE9.3 kmh NNE 5.8 mph9.3 kmh 29.47 in998.0 mb 0.00 in0.0 mm 0.00 in/hr0.0 mm/hr 0.00 in0.0 mm
08:30 AM 41.0°F5.0°C 33.3°F0.7°C 74% 5.8 mph NNE9.3 kmh NNE 5.8 mph9.3 kmh 29.50 in999.0 mb 0.00 in0.0 mm 0.00 in/hr0.0 mm/hr 0.00 in0.0 mm
08:20 AM 40.9°F4.9°C 33.2°F0.7°C 74% 5.8 mph NNE9.3 kmh NNE 5.8 mph9.3 kmh 29.50 in999.0 mb 0.00 in0.0 mm 0.00 in/hr0.0 mm/hr 0.00 in0.0 mm
08:10 AM 40.8°F4.9°C 33.2°F0.7°C 74% 5.8 mph NNE9.3 kmh NNE 5.8 mph9.3 kmh 29.50 in999.0 mb 0.00 in0.0 mm 0.00 in/hr0.0 mm/hr 0.00 in0.0 mm
07:50 AM 41.0°F5.0°C 32.7°F0.4°C 72% 5.8 mph NNE9.3 kmh NNE 5.8 mph9.3 kmh 29.50 in999.0 mb 0.00 in0.0 mm 0.00 in/hr0.0 mm/hr 0.00 in0.0 mm
07:40 AM 41.0°F5.0°C 32.7°F0.4°C 72% 5.8 mph NNE9.3 kmh NNE 5.8 mph9.3 kmh 29.50 in999.0 mb 0.00 in0.0 mm 0.00 in/hr0.0 mm/hr 0.00 in0.0 mm
07:30 AM 41.0°F5.0°C 32.7°F0.4°C 72% 5.8 mph NNE9.3 kmh NNE 5.8 mph9.3 kmh 29.53 in1000.0 mb 0.00 in0.0 mm 0.00 in/hr0.0 mm/hr 0.00 in0.0 mm
03:50 AM 40.6°F4.8°C 30.2°F-1.0°C 66% 5.8 mph NNE9.3 kmh NNE 5.8 mph9.3 kmh 29.62 in1003.0 mb 0.00 in0.0 mm 0.00 in/hr0.0 mm/hr 0.00 in0.0 mm
03:40 AM 40.5°F4.7°C 29.6°F-1.3°C 65% 5.8 mph NNE9.3 kmh NNE 5.8 mph9.3 kmh 29.62 in1003.0 mb 0.00 in0.0 mm 0.00 in/hr0.0 mm/hr 0.00 in0.0 mm
01:50 AM 41.4°F5.2°C 29.3°F-1.5°C 62% 5.8 mph NNE9.3 kmh NNE 5.8 mph9.3 kmh 29.69 in1005.4 mb 0.00 in0.0 mm 0.00 in/hr0.0 mm/hr 0.00 in0.0 mm
01:40 AM 41.4°F5.2°C 29.3°F-1.5°C 62% 5.8 mph NNE9.3 kmh NNE 5.8 mph9.3 kmh 29.71 in1006.1 mb 0.00 in0.0 mm 0.00 in/hr0.0 mm/hr 0.00 in0.0 mm
01:30 AM 41.4°F5.2°C 29.7°F-1.3°C 63% 5.8 mph NNE9.3 kmh NNE 5.8 mph9.3 kmh 29.71 in1006.1 mb 0.00 in0.0 mm 0.00 in/hr0.0 mm/hr 0.00 in0.0 mm
01:20 AM 41.5°F5.3°C 29.5°F-1.4°C 62% 5.8 mph NNE9.3 kmh NNE 5.8 mph9.3 kmh 29.71 in1006.1 mb 0.00 in0.0 mm 0.00 in/hr0.0 mm/hr 0.00 in0.0 mm
01:10 AM 41.5°F5.3°C 29.9°F-1.2°C 63% 5.8 mph NNE9.3 kmh NNE 5.8 mph9.3 kmh 29.71 in1006.1 mb 0.00 in0.0 mm 0.00 in/hr0.0 mm/hr 0.00 in0.0 mm
12:50 AM 41.7°F5.4°C 30.0°F-1.1°C 63% 5.8 mph NNE9.3 kmh NNE 5.8 mph9.3 kmh 29.71 in1006.1 mb 0.00 in0.0 mm 0.00 in/hr0.0 mm/hr 0.00 in0.0 mm
12:40 AM 41.9°F5.5°C 30.2°F-1.0°C 63% 5.8 mph NNE9.3 kmh NNE 5.8 mph9.3 kmh 29.71 in1006.1 mb 0.00 in0.0 mm 0.00 in/hr0.0 mm/hr 0.00 in0.0 mm
12:30 AM 41.9°F5.5°C 29.8°F-1.2°C 62% 5.8 mph NNE9.3 kmh NNE 5.8 mph9.3 kmh 29.74 in1007.1 mb 0.00 in0.0 mm 0.00 in/hr0.0 mm/hr 0.00 in0.0 mm
12:20 AM 42.1°F5.6°C 30.4°F-0.9°C 63% 5.8 mph NNE9.3 kmh NNE 5.8 mph9.3 kmh 29.74 in1007.1 mb 0.00 in0.0 mm 0.00 in/hr0.0 mm/hr 0.00 in0.0 mm
12:10 AM 42.1°F5.6°C 30.0°F-1.1°C 62% 5.8 mph NNE9.3 kmh NNE 5.8 mph9.3 kmh 29.74 in1007.1 mb 0.00 in0.0 mm 0.00 in/hr0.0 mm/hr 0.00 in0.0 mm